sensor_id;sensor_type;location;lat;lon;timestamp;pressure;altitude;pressure_sealevel;temperature;humidity
67738;BME280;54534;43.612;1.572;2022-09-01T00:01:46;99172.31;;;25.49;52.67
67738;BME280;54534;43.612;1.572;2022-09-01T00:04:15;99169.63;;;25.49;52.83
67738;BME280;54534;43.612;1.572;2022-09-01T00:06:41;99170.66;;;25.48;52.23
67738;BME280;54534;43.612;1.572;2022-09-01T00:09:10;99169.81;;;25.47;52.47
67738;BME280;54534;43.612;1.572;2022-09-01T00:11:37;99163.59;;;25.47;52.32
67738;BME280;54534;43.612;1.572;2022-09-01T00:14:04;99163.59;;;25.47;52.30
67738;BME280;54534;43.612;1.572;2022-09-01T00:16:31;99158.19;;;25.47;52.44
67738;BME280;54534;43.612;1.572;2022-09-01T00:18:57;99159.19;;;25.46;52.55
67738;BME280;54534;43.612;1.572;2022-09-01T00:21:32;99153.00;;;25.45;52.19
67738;BME280;54534;43.612;1.572;2022-09-01T00:23:59;99164.59;;;25.46;52.35
67738;BME280;54534;43.612;1.572;2022-09-01T00:26:26;99167.28;;;25.46;52.50
67738;BME280;54534;43.612;1.572;2022-09-01T00:28:52;99166.59;;;25.43;51.84
67738;BME280;54534;43.612;1.572;2022-09-01T00:31:18;99165.75;;;25.43;52.15
67738;BME280;54534;43.612;1.572;2022-09-01T00:33:44;99169.47;;;25.42;52.09
67738;BME280;54534;43.612;1.572;2022-09-01T00:36:10;99170.34;;;25.42;52.01
67738;BME280;54534;43.612;1.572;2022-09-01T00:38:37;99173.19;;;25.41;52.09
67738;BME280;54534;43.612;1.572;2022-09-01T00:41:03;99175.88;;;25.41;51.61
67738;BME280;54534;43.612;1.572;2022-09-01T00:43:46;99169.63;;;25.40;51.50
67738;BME280;54534;43.612;1.572;2022-09-01T00:46:24;99166.13;;;25.40;51.60
67738;BME280;54534;43.612;1.572;2022-09-01T00:48:55;99174.22;;;25.40;51.87
67738;BME280;54534;43.612;1.572;2022-09-01T00:51:21;99173.34;;;25.39;51.87
67738;BME280;54534;43.612;1.572;2022-09-01T00:53:47;99168.13;;;25.38;51.36
67738;BME280;54534;43.612;1.572;2022-09-01T00:56:14;99168.97;;;25.38;51.24
67738;BME280;54534;43.612;1.572;2022-09-01T00:58:39;99161.94;;;25.37;51.46
67738;BME280;54534;43.612;1.572;2022-09-01T01:01:07;99161.09;;;25.37;51.62
67738;BME280;54534;43.612;1.572;2022-09-01T01:03:33;99160.22;;;25.36;51.50
67738;BME280;54534;43.612;1.572;2022-09-01T01:06:02;99170.16;;;25.36;51.69
67738;BME280;54534;43.612;1.572;2022-09-01T01:08:31;99159.56;;;25.34;51.58
67738;BME280;54534;43.612;1.572;2022-09-01T01:11:06;99157.72;;;25.35;51.17
67738;BME280;54534;43.612;1.572;2022-09-01T01:13:46;99158.72;;;25.33;51.45
67738;BME280;54534;43.612;1.572;2022-09-01T01:16:14;99161.59;;;25.32;51.13
67738;BME280;54534;43.612;1.572;2022-09-01T01:18:40;99162.59;;;25.31;51.50
67738;BME280;54534;43.612;1.572;2022-09-01T01:21:11;99158.06;;;25.31;51.34
67738;BME280;54534;43.612;1.572;2022-09-01T01:24:06;99162.78;;;25.29;51.26
67738;BME280;54534;43.612;1.572;2022-09-01T01:26:33;99163.59;;;25.30;51.32
67738;BME280;54534;43.612;1.572;2022-09-01T01:28:58;99170.00;;;25.29;51.30
67738;BME280;54534;43.612;1.572;2022-09-01T01:31:26;99170.00;;;25.29;51.38
67738;BME280;54534;43.612;1.572;2022-09-01T01:33:53;99167.31;;;25.29;51.08
67738;BME280;54534;43.612;1.572;2022-09-01T01:36:25;99168.31;;;25.28;51.33
67738;BME280;54534;43.612;1.572;2022-09-01T01:38:58;99172.84;;;25.27;51.28
67738;BME280;54534;43.612;1.572;2022-09-01T01:41:26;99174.69;;;25.27;51.15
67738;BME280;54534;43.612;1.572;2022-09-01T01:43:52;99172.19;;;25.25;51.23
67738;BME280;54534;43.612;1.572;2022-09-01T01:46:17;99165.94;;;25.25;51.37
67738;BME280;54534;43.612;1.572;2022-09-01T01:48:44;99165.94;;;25.25;51.54
67738;BME280;54534;43.612;1.572;2022-09-01T01:51:11;99171.34;;;25.25;51.57
67738;BME280;54534;43.612;1.572;2022-09-01T01:53:38;99167.78;;;25.24;51.44
67738;BME280;54534;43.612;1.572;2022-09-01T01:56:04;99168.81;;;25.23;51.60
67738;BME280;54534;43.612;1.572;2022-09-01T01:58:31;99175.19;;;25.22;51.55
67738;BME280;54534;43.612;1.572;2022-09-01T02:00:57;99163.59;;;25.21;51.58
67738;BME280;54534;43.612;1.572;2022-09-01T02:03:26;99177.91;;;25.22;51.26
67738;BME280;54534;43.612;1.572;2022-09-01T02:05:53;99173.53;;;25.21;51.59
67738;BME280;54534;43.612;1.572;2022-09-01T02:08:21;99167.31;;;25.20;51.56
67738;BME280;54534;43.612;1.572;2022-09-01T02:10:52;99171.00;;;25.19;51.19
67738;BME280;54534;43.612;1.572;2022-09-01T02:13:21;99169.34;;;25.18;51.23
67738;BME280;54534;43.612;1.572;2022-09-01T02:15:56;99179.25;;;25.18;51.51
67738;BME280;54534;43.612;1.572;2022-09-01T02:18:27;99178.41;;;25.17;51.22
67738;BME280;54534;43.612;1.572;2022-09-01T02:20:55;99176.72;;;25.16;51.54
67738;BME280;54534;43.612;1.572;2022-09-01T02:23:23;99180.44;;;25.15;51.45
67738;BME280;54534;43.612;1.572;2022-09-01T02:25:55;99179.59;;;25.15;51.50
67738;BME280;54534;43.612;1.572;2022-09-01T02:28:22;99181.44;;;25.14;51.52
67738;BME280;54534;43.612;1.572;2022-09-01T02:30:50;99182.28;;;25.15;51.58
67738;BME280;54534;43.612;1.572;2022-09-01T02:33:17;99181.59;;;25.13;51.37
67738;BME280;54534;43.612;1.572;2022-09-01T02:36:05;99183.44;;;25.12;51.44
67738;BME280;54534;43.612;1.572;2022-09-01T02:38:31;99182.59;;;25.12;51.38
67738;BME280;54534;43.612;1.572;2022-09-01T02:40:59;99180.75;;;25.12;51.53
67738;BME280;54534;43.612;1.572;2022-09-01T02:43:26;99186.31;;;25.10;51.83
67738;BME280;54534;43.612;1.572;2022-09-01T02:45:58;99190.66;;;25.12;51.64
67738;BME280;54534;43.612;1.572;2022-09-01T02:48:27;99189.00;;;25.10;51.52
67738;BME280;54534;43.612;1.572;2022-09-01T02:50:58;99189.00;;;25.10;51.59
67738;BME280;54534;43.612;1.572;2022-09-01T02:53:26;99182.78;;;25.10;51.87
67738;BME280;54534;43.612;1.572;2022-09-01T02:55:52;99190.00;;;25.09;51.87
67738;BME280;54534;43.612;1.572;2022-09-01T02:58:18;99186.47;;;25.09;51.67
67738;BME280;54534;43.612;1.572;2022-09-01T03:00:45;99184.63;;;25.09;51.61
67738;BME280;54534;43.612;1.572;2022-09-01T03:03:10;99185.63;;;25.08;51.75
67738;BME280;54534;43.612;1.572;2022-09-01T03:05:42;99186.78;;;25.06;51.76
67738;BME280;54534;43.612;1.572;2022-09-01T03:08:09;99183.97;;;25.07;51.70
67738;BME280;54534;43.612;1.572;2022-09-01T03:10:39;99186.78;;;25.06;51.90
67738;BME280;54534;43.612;1.572;2022-09-01T03:13:12;99184.94;;;25.06;51.88
67738;BME280;54534;43.612;1.572;2022-09-01T03:15:39;99181.41;;;25.06;51.71
67738;BME280;54534;43.612;1.572;2022-09-01T03:18:07;99179.75;;;25.05;51.92
67738;BME280;54534;43.612;1.572;2022-09-01T03:20:34;99181.41;;;25.06;51.57
67738;BME280;54534;43.612;1.572;2022-09-01T03:23:01;99179.75;;;25.05;52.07
67738;BME280;54534;43.612;1.572;2022-09-01T03:25:27;99182.44;;;25.05;51.67
67738;BME280;54534;43.612;1.572;2022-09-01T03:27:55;99183.44;;;25.04;51.88
67738;BME280;54534;43.612;1.572;2022-09-01T03:30:27;99171.00;;;25.03;51.57
67738;BME280;54534;43.612;1.572;2022-09-01T03:32:55;99175.56;;;25.02;51.91
67738;BME280;54534;43.612;1.572;2022-09-01T03:35:21;99178.25;;;25.02;51.67
67738;BME280;54534;43.612;1.572;2022-09-01T03:37:47;99186.31;;;25.02;51.46
67738;BME280;54534;43.612;1.572;2022-09-01T03:40:12;99179.25;;;25.01;51.65
67738;BME280;54534;43.612;1.572;2022-09-01T03:42:38;99180.09;;;25.02;51.74
67738;BME280;54534;43.612;1.572;2022-09-01T03:45:05;99181.94;;;25.01;51.60
67738;BME280;54534;43.612;1.572;2022-09-01T03:47:34;99177.53;;;25.00;51.67
67738;BME280;54534;43.612;1.572;2022-09-01T03:50:07;99173.84;;;25.01;51.88
67738;BME280;54534;43.612;1.572;2022-09-01T03:52:36;99175.66;;;25.00;51.93
67738;BME280;54534;43.612;1.572;2022-09-01T03:55:05;99172.16;;;25.00;51.95
67738;BME280;54534;43.612;1.572;2022-09-01T03:57:32;99166.09;;;24.98;51.84
67738;BME280;54534;43.612;1.572;2022-09-01T03:59:58;99165.94;;;24.99;51.61
67738;BME280;54534;43.612;1.572;2022-09-01T04:02:24;99169.63;;;24.98;51.80
67738;BME280;54534;43.612;1.572;2022-09-01T04:04:53;99166.09;;;24.98;51.44
67738;BME280;54534;43.612;1.572;2022-09-01T04:07:19;99167.09;;;24.97;51.59
67738;BME280;54534;43.612;1.572;2022-09-01T04:09:44;99155.50;;;24.96;51.86
67738;BME280;54534;43.612;1.572;2022-09-01T04:12:10;99156.50;;;24.95;51.49
67738;BME280;54534;43.612;1.572;2022-09-01T04:14:39;99150.31;;;24.95;51.41
67738;BME280;54534;43.612;1.572;2022-09-01T04:17:05;99146.78;;;24.94;51.57
67738;BME280;54534;43.612;1.572;2022-09-01T04:19:49;99148.78;;;24.92;51.75
67738;BME280;54534;43.612;1.572;2022-09-01T04:22:14;99142.38;;;24.93;51.40
67738;BME280;54534;43.612;1.572;2022-09-01T04:24:42;99145.94;;;24.94;51.79
67738;BME280;54534;43.612;1.572;2022-09-01T04:27:10;99145.94;;;24.94;51.31
67738;BME280;54534;43.612;1.572;2022-09-01T04:29:36;99144.22;;;24.93;51.35
67738;BME280;54534;43.612;1.572;2022-09-01T04:32:07;99146.91;;;24.93;51.45
67738;BME280;54534;43.612;1.572;2022-09-01T04:34:36;99143.41;;;24.92;51.57
67738;BME280;54534;43.612;1.572;2022-09-01T04:37:13;99141.72;;;24.91;51.56
67738;BME280;54534;43.612;1.572;2022-09-01T04:39:47;99144.41;;;24.91;51.59
67738;BME280;54534;43.612;1.572;2022-09-01T04:42:14;99142.72;;;24.90;51.42
67738;BME280;54534;43.612;1.572;2022-09-01T04:44:40;99141.72;;;24.91;51.33
67738;BME280;54534;43.612;1.572;2022-09-01T04:47:08;99143.56;;;24.91;51.59
67738;BME280;54534;43.612;1.572;2022-09-01T04:49:35;99131.97;;;24.90;51.26
67738;BME280;54534;43.612;1.572;2022-09-01T04:52:03;99133.00;;;24.89;51.18
67738;BME280;54534;43.612;1.572;2022-09-01T04:54:28;99133.00;;;24.89;51.60
67738;BME280;54534;43.612;1.572;2022-09-01T04:56:56;99129.44;;;24.88;51.44
67738;BME280;54534;43.612;1.572;2022-09-01T04:59:23;99134.81;;;24.88;51.14
67738;BME280;54534;43.612;1.572;2022-09-01T05:01:49;99136.66;;;24.88;51.17
67738;BME280;54534;43.612;1.572;2022-09-01T05:04:18;99138.38;;;24.89;51.34
67738;BME280;54534;43.612;1.572;2022-09-01T05:06:50;99135.69;;;24.89;51.16
67738;BME280;54534;43.612;1.572;2022-09-01T05:09:20;99129.59;;;24.87;51.28
67738;BME280;54534;43.612;1.572;2022-09-01T05:11:45;99136.00;;;24.86;51.37
67738;BME280;54534;43.612;1.572;2022-09-01T05:14:13;99137.84;;;24.85;51.52
67738;BME280;54534;43.612;1.572;2022-09-01T05:16:38;99136.16;;;24.84;51.31
67738;BME280;54534;43.612;1.572;2022-09-01T05:19:06;99142.56;;;24.83;51.08
67738;BME280;54534;43.612;1.572;2022-09-01T05:21:45;99135.50;;;24.82;51.00
67738;BME280;54534;43.612;1.572;2022-09-01T05:24:13;99135.66;;;24.81;51.12
67738;BME280;54534;43.612;1.572;2022-09-01T05:26:40;99141.38;;;24.77;51.26
67738;BME280;54534;43.612;1.572;2022-09-01T05:29:08;99137.69;;;24.79;51.04
67738;BME280;54534;43.612;1.572;2022-09-01T05:31:43;99138.69;;;24.77;51.07
67738;BME280;54534;43.612;1.572;2022-09-01T05:34:10;99139.69;;;24.76;51.45
67738;BME280;54534;43.612;1.572;2022-09-01T05:36:40;99137.16;;;24.75;51.17
67738;BME280;54534;43.612;1.572;2022-09-01T05:39:06;99144.38;;;24.74;51.38
67738;BME280;54534;43.612;1.572;2022-09-01T05:41:35;99140.84;;;24.74;51.24
67738;BME280;54534;43.612;1.572;2022-09-01T05:44:03;99139.19;;;24.73;51.45
67738;BME280;54534;43.612;1.572;2022-09-01T05:46:31;99147.41;;;24.71;51.56
67738;BME280;54534;43.612;1.572;2022-09-01T05:48:56;99142.19;;;24.70;51.40
67738;BME280;54534;43.612;1.572;2022-09-01T05:51:24;99144.88;;;24.70;51.32
67738;BME280;54534;43.612;1.572;2022-09-01T05:53:53;99141.53;;;24.68;51.42
67738;BME280;54534;43.612;1.572;2022-09-01T05:56:24;99150.44;;;24.68;51.33
67738;BME280;54534;43.612;1.572;2022-09-01T05:58:50;99145.06;;;24.68;51.56
67738;BME280;54534;43.612;1.572;2022-09-01T06:01:22;99141.69;;;24.66;51.33
67738;BME280;54534;43.612;1.572;2022-09-01T06:03:53;99143.56;;;24.65;51.76
67738;BME280;54534;43.612;1.572;2022-09-01T06:06:28;99137.31;;;24.65;51.59
67738;BME280;54534;43.612;1.572;2022-09-01T06:08:54;99134.78;;;24.63;51.71
67738;BME280;54534;43.612;1.572;2022-09-01T06:11:24;99141.84;;;24.64;51.44
67738;BME280;54534;43.612;1.572;2022-09-01T06:13:51;99141.84;;;24.64;51.76
67738;BME280;54534;43.612;1.572;2022-09-01T06:16:20;99139.34;;;24.63;51.70
67738;BME280;54534;43.612;1.572;2022-09-01T06:18:46;99151.75;;;24.64;51.67
67738;BME280;54534;43.612;1.572;2022-09-01T06:21:12;99147.22;;;24.64;51.53
67738;BME280;54534;43.612;1.572;2022-09-01T06:23:43;99148.94;;;24.65;51.50
67738;BME280;54534;43.612;1.572;2022-09-01T06:26:19;99149.75;;;24.66;51.50
67738;BME280;54534;43.612;1.572;2022-09-01T06:28:45;99156.81;;;24.67;51.61
67738;BME280;54534;43.612;1.572;2022-09-01T06:31:13;99155.81;;;24.68;51.32
67738;BME280;54534;43.612;1.572;2022-09-01T06:33:39;99152.28;;;24.68;51.39
67738;BME280;54534;43.612;1.572;2022-09-01T06:36:06;99147.75;;;24.68;51.56
67738;BME280;54534;43.612;1.572;2022-09-01T06:38:33;99156.50;;;24.70;51.25
67738;BME280;54534;43.612;1.572;2022-09-01T06:41:04;99149.41;;;24.69;51.19
67738;BME280;54534;43.612;1.572;2022-09-01T06:43:38;99147.41;;;24.71;51.54
67738;BME280;54534;43.612;1.572;2022-09-01T06:46:06;99146.59;;;24.71;51.10
67738;BME280;54534;43.612;1.572;2022-09-01T06:48:32;99144.72;;;24.71;51.27
67738;BME280;54534;43.612;1.572;2022-09-01T06:51:00;99152.78;;;24.71;51.44
67738;BME280;54534;43.612;1.572;2022-09-01T06:53:28;99154.47;;;24.72;51.12
67738;BME280;54534;43.612;1.572;2022-09-01T06:55:56;99152.63;;;24.73;51.26
67738;BME280;54534;43.612;1.572;2022-09-01T06:58:21;99153.47;;;24.73;51.21
67738;BME280;54534;43.612;1.572;2022-09-01T07:00:47;99155.13;;;24.74;51.16
67738;BME280;54534;43.612;1.572;2022-09-01T07:03:14;99154.28;;;24.74;51.10
67738;BME280;54534;43.612;1.572;2022-09-01T07:05:41;99146.22;;;24.74;51.23
67738;BME280;54534;43.612;1.572;2022-09-01T07:08:09;99147.91;;;24.75;51.04
67738;BME280;54534;43.612;1.572;2022-09-01T07:10:44;99146.06;;;24.75;51.03
67738;BME280;54534;43.612;1.572;2022-09-01T07:13:13;99141.56;;;24.76;51.22
67738;BME280;54534;43.612;1.572;2022-09-01T07:15:48;99155.81;;;24.76;51.03
67738;BME280;54534;43.612;1.572;2022-09-01T07:18:18;99155.81;;;24.76;51.33
67738;BME280;54534;43.612;1.572;2022-09-01T07:20:46;99153.97;;;24.77;51.20
67738;BME280;54534;43.612;1.572;2022-09-01T07:23:14;99151.28;;;24.77;51.00
67738;BME280;54534;43.612;1.572;2022-09-01T07:25:42;99142.38;;;24.76;51.38
67738;BME280;54534;43.612;1.572;2022-09-01T07:28:09;99142.22;;;24.78;51.25
67738;BME280;54534;43.612;1.572;2022-09-01T07:30:42;99144.72;;;24.80;50.92
67738;BME280;54534;43.612;1.572;2022-09-01T07:33:11;99148.44;;;24.79;51.02
67738;BME280;54534;43.612;1.572;2022-09-01T07:35:38;99143.06;;;24.79;51.19
67738;BME280;54534;43.612;1.572;2022-09-01T07:38:04;99142.03;;;24.80;51.32
67738;BME280;54534;43.612;1.572;2022-09-01T07:40:35;99135.81;;;24.79;51.02
67738;BME280;54534;43.612;1.572;2022-09-01T07:43:05;99133.13;;;24.79;51.12
67738;BME280;54534;43.612;1.572;2022-09-01T07:45:33;99146.41;;;24.81;51.14
67738;BME280;54534;43.612;1.572;2022-09-01T07:48:01;99144.72;;;24.80;51.19
67738;BME280;54534;43.612;1.572;2022-09-01T07:50:27;99144.56;;;24.81;51.25
67738;BME280;54534;43.612;1.572;2022-09-01T07:52:54;99140.00;;;24.82;51.20
67738;BME280;54534;43.612;1.572;2022-09-01T07:55:19;99138.34;;;24.81;51.07
67738;BME280;54534;43.612;1.572;2022-09-01T07:57:45;99150.78;;;24.82;51.24
67738;BME280;54534;43.612;1.572;2022-09-01T08:00:14;99142.69;;;24.82;50.86
67738;BME280;54534;43.612;1.572;2022-09-01T08:02:41;99147.25;;;24.81;50.90
67738;BME280;54534;43.612;1.572;2022-09-01T08:05:11;99149.78;;;24.83;51.09
67738;BME280;54534;43.612;1.572;2022-09-01T08:07:37;99155.16;;;24.83;50.93
67738;BME280;54534;43.612;1.572;2022-09-01T08:10:04;99157.84;;;24.83;51.12
67738;BME280;54534;43.612;1.572;2022-09-01T08:12:31;99157.19;;;24.81;50.85
67738;BME280;54534;43.612;1.572;2022-09-01T08:14:56;99156.84;;;24.84;50.87
67738;BME280;54534;43.612;1.572;2022-09-01T08:17:22;99152.28;;;24.84;51.11
67738;BME280;54534;43.612;1.572;2022-09-01T08:19:47;99154.16;;;24.84;50.81
67738;BME280;54534;43.612;1.572;2022-09-01T08:22:14;99144.22;;;24.84;50.78
67738;BME280;54534;43.612;1.572;2022-09-01T08:24:39;99148.78;;;24.84;51.15
67738;BME280;54534;43.612;1.572;2022-09-01T08:27:05;99147.75;;;24.85;51.02
67738;BME280;54534;43.612;1.572;2022-09-01T08:29:30;99147.75;;;24.85;51.16
67738;BME280;54534;43.612;1.572;2022-09-01T08:31:56;99137.84;;;24.85;50.67
67738;BME280;54534;43.612;1.572;2022-09-01T08:34:23;99137.84;;;24.85;50.97
67738;BME280;54534;43.612;1.572;2022-09-01T08:36:49;99136.00;;;24.86;51.13
67738;BME280;54534;43.612;1.572;2022-09-01T08:39:15;99131.63;;;24.85;50.78
67738;BME280;54534;43.612;1.572;2022-09-01T08:41:51;99133.31;;;24.86;50.91
67738;BME280;54534;43.612;1.572;2022-09-01T08:44:50;99137.66;;;24.87;51.10
67738;BME280;54534;43.612;1.572;2022-09-01T08:47:18;99140.34;;;24.87;50.80
67738;BME280;54534;43.612;1.572;2022-09-01T08:49:44;99150.28;;;24.86;51.29
67738;BME280;54534;43.612;1.572;2022-09-01T08:57:42;99136.84;;;24.86;51.01
67738;BME280;54534;43.612;1.572;2022-09-01T09:00:12;99144.91;;;24.86;51.04
67738;BME280;54534;43.612;1.572;2022-09-01T09:16:47;99152.97;;;24.86;51.02
67738;BME280;54534;43.612;1.572;2022-09-01T09:19:34;99151.13;;;24.87;50.74
67738;BME280;54534;43.612;1.572;2022-09-01T09:22:03;99150.97;;;24.88;51.17
67738;BME280;54534;43.612;1.572;2022-09-01T09:24:53;99137.66;;;24.87;50.52
67738;BME280;54534;43.612;1.572;2022-09-01T09:27:27;99146.44;;;24.89;50.81
67738;BME280;54534;43.612;1.572;2022-09-01T09:29:59;99146.44;;;24.89;50.71
67738;BME280;54534;43.612;1.572;2022-09-01T09:35:37;99147.44;;;24.88;50.68
67738;BME280;54534;43.612;1.572;2022-09-01T09:40:36;99139.34;;;24.88;50.82
67738;BME280;54534;43.612;1.572;2022-09-01T09:43:04;99142.72;;;24.90;50.86
67738;BME280;54534;43.612;1.572;2022-09-01T09:45:37;99133.84;;;24.90;50.70
67738;BME280;54534;43.612;1.572;2022-09-01T09:48:29;99124.91;;;24.89;50.77
67738;BME280;54534;43.612;1.572;2022-09-01T09:50:55;99130.97;;;24.91;50.69
67738;BME280;54534;43.612;1.572;2022-09-01T09:56:02;99123.88;;;24.90;50.88
67738;BME280;54534;43.612;1.572;2022-09-01T09:58:36;99130.13;;;24.91;50.57
67738;BME280;54534;43.612;1.572;2022-09-01T10:03:51;99122.06;;;24.91;50.57
67738;BME280;54534;43.612;1.572;2022-09-01T10:06:37;99128.28;;;24.91;50.79
67738;BME280;54534;43.612;1.572;2022-09-01T10:09:08;99122.06;;;24.91;50.87
67738;BME280;54534;43.612;1.572;2022-09-01T10:11:40;99125.59;;;24.91;50.71
67738;BME280;54534;43.612;1.572;2022-09-01T10:14:29;99123.75;;;24.92;50.55
67738;BME280;54534;43.612;1.572;2022-09-01T10:17:10;99119.22;;;24.92;50.42
67738;BME280;54534;43.612;1.572;2022-09-01T10:19:40;99110.28;;;24.92;50.62
67738;BME280;54534;43.612;1.572;2022-09-01T10:22:08;99109.44;;;24.91;50.82
67738;BME280;54534;43.612;1.572;2022-09-01T10:24:35;99115.69;;;24.92;50.35
67738;BME280;54534;43.612;1.572;2022-09-01T10:27:18;99108.44;;;24.92;50.41
67738;BME280;54534;43.612;1.572;2022-09-01T10:30:22;99111.16;;;24.92;50.86
67738;BME280;54534;43.612;1.572;2022-09-01T10:32:51;99100.38;;;24.92;50.61
67738;BME280;54534;43.612;1.572;2022-09-01T10:35:25;99103.88;;;24.93;50.91
67738;BME280;54534;43.612;1.572;2022-09-01T10:37:53;99095.81;;;24.93;50.62
67738;BME280;54534;43.612;1.572;2022-09-01T10:42:49;99089.44;;;24.94;50.83
67738;BME280;54534;43.612;1.572;2022-09-01T10:45:35;99076.00;;;24.94;50.42
67738;BME280;54534;43.612;1.572;2022-09-01T10:51:33;99080.53;;;24.93;50.70
67738;BME280;54534;43.612;1.572;2022-09-01T10:53:46;99079.69;;;24.93;50.36
67738;BME280;54534;43.612;1.572;2022-09-01T10:56:40;99059.00;;;24.93;50.63
67738;BME280;54534;43.612;1.572;2022-09-01T10:59:25;99062.72;;;24.92;50.63
67738;BME280;54534;43.612;1.572;2022-09-01T11:07:01;99065.25;;;24.94;50.51
67738;BME280;54534;43.612;1.572;2022-09-01T11:12:20;99061.56;;;24.95;50.35
67738;BME280;54534;43.612;1.572;2022-09-01T11:14:57;99054.47;;;24.94;50.49
67738;BME280;54534;43.612;1.572;2022-09-01T11:22:28;99047.25;;;24.94;50.84
67738;BME280;54534;43.612;1.572;2022-09-01T11:30:39;99030.94;;;24.96;50.22
67738;BME280;54534;43.612;1.572;2022-09-01T11:36:19;99028.44;;;24.94;50.69
67738;BME280;54534;43.612;1.572;2022-09-01T11:43:50;99020.19;;;24.96;50.36
67738;BME280;54534;43.612;1.572;2022-09-01T11:46:28;99022.72;;;24.97;50.59
67738;BME280;54534;43.612;1.572;2022-09-01T11:48:56;99012.97;;;24.96;50.79
67738;BME280;54534;43.612;1.572;2022-09-01T11:51:22;99012.97;;;24.96;50.69
67738;BME280;54534;43.612;1.572;2022-09-01T11:53:48;99016.50;;;24.97;50.48
67738;BME280;54534;43.612;1.572;2022-09-01T11:56:16;99011.97;;;24.97;50.33
67738;BME280;54534;43.612;1.572;2022-09-01T11:58:43;99009.28;;;24.97;50.29
67738;BME280;54534;43.612;1.572;2022-09-01T12:01:30;99000.19;;;24.98;50.65
67738;BME280;54534;43.612;1.572;2022-09-01T12:03:55;99011.97;;;24.97;50.59
67738;BME280;54534;43.612;1.572;2022-09-01T12:06:25;99009.09;;;24.99;50.64
67738;BME280;54534;43.612;1.572;2022-09-01T12:09:02;99001.88;;;24.99;50.37
67738;BME280;54534;43.612;1.572;2022-09-01T12:11:33;98996.66;;;24.98;50.38
67738;BME280;54534;43.612;1.572;2022-09-01T12:14:05;98992.94;;;24.99;50.30
67738;BME280;54534;43.612;1.572;2022-09-01T12:16:33;98998.34;;;24.99;50.43
67738;BME280;54534;43.612;1.572;2022-09-01T12:19:02;98995.66;;;24.99;50.38
67738;BME280;54534;43.612;1.572;2022-09-01T12:21:32;98993.81;;;24.99;50.70
67738;BME280;54534;43.612;1.572;2022-09-01T12:24:20;98989.25;;;25.00;50.48
67738;BME280;54534;43.612;1.572;2022-09-01T12:26:48;98993.81;;;24.99;50.19
67738;BME280;54534;43.612;1.572;2022-09-01T12:29:15;98983.03;;;24.99;50.58
67738;BME280;54534;43.612;1.572;2022-09-01T12:31:43;98988.41;;;24.99;50.66
67738;BME280;54534;43.612;1.572;2022-09-01T12:37:10;98982.00;;;25.00;50.56
67738;BME280;54534;43.612;1.572;2022-09-01T12:39:39;98976.63;;;25.00;50.36
67738;BME280;54534;43.612;1.572;2022-09-01T12:42:29;98969.59;;;24.99;50.25
67738;BME280;54534;43.612;1.572;2022-09-01T12:44:58;98972.28;;;24.99;50.31
67738;BME280;54534;43.612;1.572;2022-09-01T12:52:49;98958.69;;;25.01;50.44
67738;BME280;54534;43.612;1.572;2022-09-01T12:57:51;98958.69;;;25.01;50.36
67738;BME280;54534;43.612;1.572;2022-09-01T13:00:22;98954.16;;;25.02;50.42
67738;BME280;54534;43.612;1.572;2022-09-01T13:03:11;98950.75;;;24.99;50.31
67738;BME280;54534;43.612;1.572;2022-09-01T13:05:37;98942.53;;;25.01;50.62
67738;BME280;54534;43.612;1.572;2022-09-01T13:08:08;98946.94;;;25.02;50.18
67738;BME280;54534;43.612;1.572;2022-09-01T13:10:37;98939.69;;;25.03;50.46
67738;BME280;54534;43.612;1.572;2022-09-01T13:13:04;98936.16;;;25.02;50.30
67738;BME280;54534;43.612;1.572;2022-09-01T13:15:30;98929.94;;;25.02;50.31
67738;BME280;54534;43.612;1.572;2022-09-01T13:17:56;98927.25;;;25.02;50.33
67738;BME280;54534;43.612;1.572;2022-09-01T13:20:22;98926.25;;;25.03;50.65
67738;BME280;54534;43.612;1.572;2022-09-01T13:22:48;98923.56;;;25.03;50.25
67738;BME280;54534;43.612;1.572;2022-09-01T13:25:15;98926.25;;;25.03;50.39
67738;BME280;54534;43.612;1.572;2022-09-01T13:27:41;98930.78;;;25.02;50.11
67738;BME280;54534;43.612;1.572;2022-09-01T13:30:09;98917.34;;;25.02;50.46
67738;BME280;54534;43.612;1.572;2022-09-01T13:32:35;98921.69;;;25.03;50.64
67738;BME280;54534;43.612;1.572;2022-09-01T13:35:00;98911.78;;;25.04;50.48
67738;BME280;54534;43.612;1.572;2022-09-01T13:37:26;98915.31;;;25.04;50.54
67738;BME280;54534;43.612;1.572;2022-09-01T13:39:51;98910.94;;;25.03;50.09
67738;BME280;54534;43.612;1.572;2022-09-01T13:42:17;98907.25;;;25.04;50.29
67738;BME280;54534;43.612;1.572;2022-09-01T13:44:44;98899.16;;;25.04;50.48
67738;BME280;54534;43.612;1.572;2022-09-01T13:47:09;98904.56;;;25.04;50.03
67738;BME280;54534;43.612;1.572;2022-09-01T13:49:35;98900.00;;;25.05;50.30
67738;BME280;54534;43.612;1.572;2022-09-01T13:52:00;98897.31;;;25.05;50.40
67738;BME280;54534;43.612;1.572;2022-09-01T13:54:25;98897.13;;;25.06;49.98
67738;BME280;54534;43.612;1.572;2022-09-01T13:56:51;98892.78;;;25.05;50.22
67738;BME280;54534;43.612;1.572;2022-09-01T13:59:16;98884.72;;;25.05;50.46
67738;BME280;54534;43.612;1.572;2022-09-01T14:01:41;98872.09;;;25.06;50.51
67738;BME280;54534;43.612;1.572;2022-09-01T14:04:08;98879.34;;;25.05;50.30
67738;BME280;54534;43.612;1.572;2022-09-01T14:06:39;98872.09;;;25.06;50.35
67738;BME280;54534;43.612;1.572;2022-09-01T14:09:04;98869.41;;;25.06;50.41
67738;BME280;54534;43.612;1.572;2022-09-01T14:11:30;98875.63;;;25.06;50.19
67738;BME280;54534;43.612;1.572;2022-09-01T14:13:56;98871.09;;;25.07;50.04
67738;BME280;54534;43.612;1.572;2022-09-01T14:16:21;98873.78;;;25.07;50.04
67738;BME280;54534;43.612;1.572;2022-09-01T14:18:46;98869.25;;;25.07;49.95
67738;BME280;54534;43.612;1.572;2022-09-01T14:21:13;98861.16;;;25.07;50.07
67738;BME280;54534;43.612;1.572;2022-09-01T14:23:41;98862.00;;;25.08;50.42
67738;BME280;54534;43.612;1.572;2022-09-01T14:26:09;98856.63;;;25.08;50.13